Terminal Aerodrome Forecast
Issued by NWS

Home | Current Version | Previous Version | Text Only | Print | Product List | Glossary On
Versions: 1 2 3 4 5 6 7 8 9 10 11 12 13 14 15 16 17 18 19 20 21 22 23
000
FTUS45 KGJT 290535
TAFMTJ
TAF
KMTJ 290535Z 2906/3006 14008KT P6SM SCT090 BKN200
     FM291200 15005KT P6SM OVC200
     FM291800 35004KT P6SM OVC200
     FM292100 23005KT P6SM SCT090 BKN150
     FM300100 14005KT P6SM BKN090 OVC150=

USA.gov is the U.S. government's official web portal to all federal, state and local government web resources and services.